createdAt,value
2022-11-20T00:00:17.383Z,101515.81
2022-11-20T00:02:45.873Z,101514.63
2022-11-20T00:05:12.342Z,101514.63
2022-11-20T00:07:38.789Z,101504.81
2022-11-20T00:10:43.897Z,101502.66
2022-11-20T00:13:17.307Z,101503.00
2022-11-20T00:15:43.796Z,101496.03
2022-11-20T00:18:10.247Z,101502.53
2022-11-20T00:20:54.679Z,101509.00
2022-11-20T00:23:21.274Z,101499.75
2022-11-20T00:26:09.115Z,101497.91
2022-11-20T00:28:38.149Z,101502.41
2022-11-20T00:31:10.578Z,101506.06
2022-11-20T00:33:40.463Z,101500.41
2022-11-20T00:36:16.513Z,101503.06
2022-11-20T00:38:46.416Z,101490.59
2022-11-20T00:41:16.520Z,101494.25
2022-11-20T00:43:48.055Z,101490.78
2022-11-20T00:46:25.157Z,101492.44
2022-11-20T00:48:58.449Z,101495.44
2022-11-20T00:51:27.936Z,101497.09
2022-11-20T00:53:57.410Z,101492.94
2022-11-20T00:56:32.924Z,101482.81
2022-11-20T00:59:04.589Z,101470.69
2022-11-20T01:01:48.124Z,101469.03
2022-11-20T01:04:14.500Z,101478.84
2022-11-20T01:06:41.186Z,101473.88
2022-11-20T01:09:12.049Z,101473.38
2022-11-20T01:11:41.855Z,101479.53
2022-11-20T01:14:12.152Z,101470.72
2022-11-20T01:17:03.490Z,101477.88
2022-11-20T01:19:51.771Z,101475.38
2022-11-20T01:22:20.238Z,101468.41
2022-11-20T01:24:54.587Z,101458.94
2022-11-20T01:27:33.233Z,101454.97
2022-11-20T01:30:06.079Z,101456.78
2022-11-20T01:32:56.133Z,101461.09
2022-11-20T01:35:24.624Z,101458.44
2022-11-20T01:37:53.110Z,101456.78
2022-11-20T01:40:35.867Z,101462.28
2022-11-20T01:43:23.887Z,101460.28
2022-11-20T01:46:19.291Z,101456.78
2022-11-20T01:49:01.352Z,101450.00
2022-11-20T01:51:51.837Z,101459.97
2022-11-20T01:54:25.605Z,101458.31
2022-11-20T01:57:06.184Z,101456.66
2022-11-20T01:59:48.853Z,101459.66
2022-11-20T02:02:20.151Z,101453.69
2022-11-20T02:04:48.135Z,101449.38
2022-11-20T02:07:19.809Z,101452.19
2022-11-20T02:09:57.365Z,101454.84
2022-11-20T02:12:43.447Z,101452.38
2022-11-20T02:15:16.158Z,101445.38
2022-11-20T02:17:42.657Z,101444.38
2022-11-20T02:20:09.733Z,101449.69
2022-11-20T02:22:49.885Z,101442.06
2022-11-20T02:25:16.647Z,101445.72
2022-11-20T02:27:51.655Z,101443.59
2022-11-20T02:30:18.639Z,101446.41
2022-11-20T02:32:49.186Z,101445.09
2022-11-20T02:35:18.767Z,101443.44
2022-11-20T02:37:48.625Z,101433.13
2022-11-20T02:40:18.282Z,101435.47
2022-11-20T02:42:44.671Z,101427.84
2022-11-20T02:45:11.799Z,101428.19
2022-11-20T02:47:42.232Z,101430.16
2022-11-20T02:50:09.019Z,101431.50
2022-11-20T02:52:36.559Z,101432.34
2022-11-20T02:55:03.618Z,101431.50
2022-11-20T02:57:32.145Z,101426.03
2022-11-20T03:00:07.754Z,101421.22
2022-11-20T03:02:37.514Z,101425.03
2022-11-20T03:05:08.171Z,101416.91
2022-11-20T03:07:34.865Z,101418.09
2022-11-20T03:10:06.971Z,101418.25
2022-11-20T03:12:38.652Z,101398.19
2022-11-20T03:15:05.544Z,101401.81
2022-11-20T03:17:33.044Z,101405.97
2022-11-20T03:19:59.494Z,101407.63
2022-11-20T03:22:32.892Z,101405.16
2022-11-20T03:24:59.366Z,101405.16
2022-11-20T03:27:25.782Z,101413.25
2022-11-20T03:29:52.172Z,101402.63
2022-11-20T03:32:18.550Z,101399.00
2022-11-20T03:34:44.939Z,101398.31
2022-11-20T03:37:11.313Z,101397.31
2022-11-20T03:39:37.656Z,101399.31
2022-11-20T03:42:24.116Z,101399.66
2022-11-20T03:44:50.479Z,101405.97
2022-11-20T03:47:16.876Z,101397.34
2022-11-20T03:49:43.247Z,101394.88
2022-11-20T03:52:09.595Z,101391.72
2022-11-20T03:54:35.956Z,101397.38
2022-11-20T03:57:02.328Z,101391.56
2022-11-20T03:59:28.666Z,101389.09
2022-11-20T04:01:55.046Z,101382.44
2022-11-20T04:04:21.468Z,101388.56
2022-11-20T04:06:47.835Z,101387.56
2022-11-20T04:09:14.260Z,101383.78
2022-11-20T04:11:41.729Z,101377.81
2022-11-20T04:14:14.628Z,101380.78
2022-11-20T04:16:41.602Z,101370.50
2022-11-20T04:19:12.383Z,101377.47
2022-11-20T04:21:38.994Z,101370.50
2022-11-20T04:24:14.090Z,101372.50
2022-11-20T04:26:41.587Z,101372.84
2022-11-20T04:29:12.159Z,101362.56
2022-11-20T04:31:38.766Z,101375.16
2022-11-20T04:34:07.486Z,101391.75
2022-11-20T04:36:34.619Z,101378.47
2022-11-20T04:39:04.005Z,101377.81
2022-11-20T04:41:34.443Z,101373.50
2022-11-20T04:44:04.255Z,101364.03
2022-11-20T04:46:40.338Z,101365.53
2022-11-20T04:49:07.940Z,101352.44
2022-11-20T04:51:34.858Z,101351.94
2022-11-20T04:54:01.696Z,101353.94
2022-11-20T04:56:28.219Z,101352.28
2022-11-20T04:58:54.654Z,101356.72
2022-11-20T05:01:24.971Z,101349.28
2022-11-20T05:03:51.848Z,101333.88
2022-11-20T05:06:20.512Z,101347.81
2022-11-20T05:08:46.869Z,101354.59
2022-11-20T05:11:16.042Z,101349.28
2022-11-20T05:13:43.132Z,101341.00
2022-11-20T05:16:13.111Z,101343.00
2022-11-20T05:18:40.402Z,101343.00
2022-11-20T05:21:10.760Z,101342.00
2022-11-20T05:23:37.823Z,101346.63
2022-11-20T05:26:16.010Z,101343.31
2022-11-20T05:28:42.479Z,101333.03
2022-11-20T05:31:11.798Z,101321.28
2022-11-20T05:33:43.091Z,101315.13
2022-11-20T05:36:10.621Z,101315.13
2022-11-20T05:38:36.999Z,101316.13
2022-11-20T05:41:08.567Z,101310.81
2022-11-20T05:43:41.701Z,101304.84
2022-11-20T05:46:09.625Z,101308.69
2022-11-20T05:48:37.941Z,101307.34
2022-11-20T05:51:06.624Z,101322.09
2022-11-20T05:53:36.339Z,101330.56
2022-11-20T05:56:06.555Z,101329.03
2022-11-20T05:58:34.107Z,101333.53
2022-11-20T06:01:16.140Z,101330.72
2022-11-20T06:03:44.589Z,101332.38
2022-11-20T06:06:10.937Z,101335.19
2022-11-20T06:08:37.378Z,101346.28
2022-11-20T06:11:08.799Z,101351.59
2022-11-20T06:13:40.591Z,101347.13
2022-11-20T06:16:08.814Z,101347.78
2022-11-20T06:18:40.017Z,101354.75
2022-11-20T06:21:09.198Z,101348.59
2022-11-20T06:23:36.415Z,101354.25
2022-11-20T06:26:12.213Z,101350.94
2022-11-20T06:28:39.224Z,101359.22
2022-11-20T06:31:06.299Z,101347.28
2022-11-20T06:33:33.255Z,101345.94
2022-11-20T06:36:08.901Z,101348.44
2022-11-20T06:38:37.739Z,101349.91
2022-11-20T06:41:05.585Z,101338.16
2022-11-20T06:43:32.155Z,101339.97
2022-11-20T06:45:59.938Z,101350.75
2022-11-20T06:48:28.728Z,101355.88
2022-11-20T06:50:55.229Z,101354.75
2022-11-20T06:53:23.209Z,101351.56
2022-11-20T06:55:50.749Z,101355.22
2022-11-20T06:58:17.758Z,101348.25
2022-11-20T07:00:45.257Z,101340.63
2022-11-20T07:03:12.671Z,101337.97
2022-11-20T07:05:39.475Z,101336.31
2022-11-20T07:08:06.082Z,101333.66
2022-11-20T07:10:33.091Z,101337.31
2022-11-20T07:12:59.434Z,101332.00
2022-11-20T07:15:26.427Z,101331.19
2022-11-20T07:17:53.305Z,101327.53
2022-11-20T07:20:19.663Z,101324.38
2022-11-20T07:22:46.022Z,101332.00
2022-11-20T07:25:12.388Z,101336.63
2022-11-20T07:27:38.733Z,101334.97
2022-11-20T07:30:05.631Z,101328.84
2022-11-20T07:32:32.077Z,101319.91
2022-11-20T07:34:58.441Z,101316.94
2022-11-20T07:37:24.828Z,101318.75
2022-11-20T07:39:53.239Z,101318.41
2022-11-20T07:42:21.612Z,101311.66
2022-11-20T07:44:47.983Z,101307.81
2022-11-20T07:47:14.370Z,101321.41
2022-11-20T07:49:45.774Z,101312.81
2022-11-20T07:52:20.390Z,101323.94
2022-11-20T07:54:46.739Z,101315.78
2022-11-20T07:57:13.062Z,101321.44
2022-11-20T07:59:39.878Z,101328.72
2022-11-20T08:02:06.365Z,101329.38
2022-11-20T08:04:39.599Z,101337.69
2022-11-20T08:07:06.040Z,101332.03
2022-11-20T08:09:33.515Z,101323.56
2022-11-20T08:12:18.669Z,101322.09
2022-11-20T08:14:45.010Z,101302.16
2022-11-20T08:17:13.422Z,101292.88
2022-11-20T08:19:39.910Z,101303.16
2022-11-20T08:22:06.278Z,101308.28
2022-11-20T08:24:33.673Z,101311.09
2022-11-20T08:27:00.462Z,101300.16
2022-11-20T08:29:36.747Z,101298.16
2022-11-20T08:32:03.178Z,101302.28
2022-11-20T08:34:42.776Z,101298.09
2022-11-20T08:37:15.337Z,101309.03
2022-11-20T08:39:41.895Z,101305.69
2022-11-20T08:42:31.300Z,101302.34
2022-11-20T08:45:05.658Z,101305.97
2022-11-20T08:47:32.118Z,101307.94
2022-11-20T08:49:59.491Z,101302.78
2022-11-20T08:52:36.988Z,101297.94
2022-11-20T08:55:16.976Z,101289.94
2022-11-20T08:57:54.544Z,101288.69
2022-11-20T09:00:29.115Z,101290.31
2022-11-20T09:03:04.760Z,101286.66
2022-11-20T09:05:31.098Z,101285.13
2022-11-20T09:08:04.886Z,101287.25
2022-11-20T09:10:31.527Z,101282.06
2022-11-20T09:12:57.978Z,101281.38
2022-11-20T09:15:38.595Z,101278.81
2022-11-20T09:18:05.904Z,101285.25
2022-11-20T09:20:36.651Z,101268.94
2022-11-20T09:23:03.719Z,101264.91
2022-11-20T09:25:31.264Z,101265.38
2022-11-20T09:27:59.286Z,101255.84
2022-11-20T09:30:36.556Z,101247.16
2022-11-20T09:33:05.271Z,101240.47
2022-11-20T09:35:31.651Z,101240.75
2022-11-20T09:38:08.052Z,101235.53
2022-11-20T09:40:41.777Z,101230.66
2022-11-20T09:43:42.625Z,101230.78
2022-11-20T09:46:22.104Z,101228.84
2022-11-20T09:49:07.351Z,101223.16
2022-11-20T09:51:57.818Z,101221.41
2022-11-20T09:54:31.441Z,101210.03
2022-11-20T09:57:03.757Z,101225.91
2022-11-20T09:59:36.999Z,101222.88
2022-11-20T10:02:18.363Z,101216.16
2022-11-20T10:05:10.199Z,101207.06
2022-11-20T10:08:09.939Z,101200.53
2022-11-20T10:10:47.358Z,101208.56
2022-11-20T10:13:32.763Z,101203.72
2022-11-20T10:16:43.941Z,101195.63
2022-11-20T10:19:43.861Z,101186.78
2022-11-20T10:22:46.744Z,101186.03
2022-11-20T10:25:18.870Z,101180.94
2022-11-20T10:28:03.774Z,101185.16
2022-11-20T10:30:32.217Z,101174.09
2022-11-20T10:33:11.590Z,101171.06
2022-11-20T10:35:51.674Z,101169.72
2022-11-20T10:38:24.568Z,101162.81
2022-11-20T10:41:21.212Z,101152.19
2022-11-20T10:43:56.048Z,101151.00
2022-11-20T10:46:46.227Z,101158.16
2022-11-20T10:49:19.391Z,101148.69
2022-11-20T10:51:51.444Z,101150.34
2022-11-20T10:55:12.368Z,101134.97
2022-11-20T10:58:31.479Z,101117.75
2022-11-20T11:01:24.334Z,101116.97
2022-11-20T11:03:53.312Z,101119.91
2022-11-20T11:06:43.662Z,101120.75
2022-11-20T11:09:22.564Z,101116.91
2022-11-20T11:11:52.618Z,101108.50
2022-11-20T11:14:25.544Z,101110.78
2022-11-20T11:16:59.276Z,101088.03
2022-11-20T11:19:27.770Z,101091.91
2022-11-20T11:21:58.112Z,101083.91
2022-11-20T11:24:41.829Z,101085.63
2022-11-20T11:27:17.350Z,101071.66
2022-11-20T11:29:46.589Z,101056.91
2022-11-20T11:32:16.201Z,101056.72
2022-11-20T11:34:42.807Z,101049.13
2022-11-20T11:37:33.368Z,101041.34
2022-11-20T11:40:39.162Z,101041.56
2022-11-20T11:43:28.253Z,101033.16
2022-11-20T11:46:01.855Z,101029.47
2022-11-20T11:49:23.310Z,101025.75
2022-11-20T11:52:08.727Z,101028.66
2022-11-20T11:54:56.606Z,101021.25
2022-11-20T11:58:12.463Z,101011.81
2022-11-20T12:00:46.495Z,101016.75
2022-11-20T12:03:42.522Z,101013.69
2022-11-20T12:06:17.499Z,101007.94
2022-11-20T12:09:05.238Z,100998.69
2022-11-20T12:11:38.652Z,100993.78
2022-11-20T12:14:56.931Z,100976.31
2022-11-20T12:17:37.768Z,100971.59
2022-11-20T12:20:42.561Z,100971.38
2022-11-20T12:23:23.947Z,100970.78
2022-11-20T12:26:23.927Z,100972.63
2022-11-20T12:29:39.806Z,100967.50
2022-11-20T12:32:29.737Z,100963.38
2022-11-20T12:35:11.629Z,100968.31
2022-11-20T12:38:00.422Z,100959.28
2022-11-20T12:40:36.735Z,100951.88
2022-11-20T12:43:45.523Z,100948.16
2022-11-20T12:46:44.680Z,100944.88
2022-11-20T12:49:20.229Z,100934.19
2022-11-20T12:52:10.737Z,100928.00
2022-11-20T12:54:40.031Z,100918.16
2022-11-20T12:57:39.395Z,100897.38
2022-11-20T13:00:21.554Z,100894.72
2022-11-20T13:03:06.110Z,100897.16
2022-11-20T13:05:33.645Z,100877.41
2022-11-20T13:08:02.112Z,100870.22
2022-11-20T13:10:43.691Z,100872.47
2022-11-20T13:14:04.083Z,100874.56
2022-11-20T13:16:42.523Z,100871.44
2022-11-20T13:19:18.035Z,100862.38
2022-11-20T13:21:51.662Z,100858.25
2022-11-20T13:24:32.314Z,100846.16
2022-11-20T13:27:22.235Z,100845.72
2022-11-20T13:30:26.243Z,100841.00
2022-11-20T13:33:08.606Z,100844.47
2022-11-20T13:35:42.788Z,100843.25
2022-11-20T13:38:11.755Z,100838.69
2022-11-20T13:40:51.372Z,100839.97
2022-11-20T13:43:37.980Z,100846.72
2022-11-20T13:46:09.883Z,100840.34
2022-11-20T13:48:42.373Z,100825.94
2022-11-20T13:51:51.594Z,100814.03
2022-11-20T13:54:52.827Z,100811.13
2022-11-20T13:57:35.666Z,100797.75
2022-11-20T14:00:26.534Z,100803.09
2022-11-20T14:03:13.165Z,100813.78
2022-11-20T14:06:03.711Z,100817.06
2022-11-20T14:09:02.287Z,100807.81
2022-11-20T14:11:35.538Z,100808.63
2022-11-20T14:14:48.780Z,100801.66
2022-11-20T14:17:43.891Z,100791.78
2022-11-20T14:20:16.175Z,100779.22
2022-11-20T14:22:50.307Z,100772.84
2022-11-20T14:25:28.284Z,100744.25
2022-11-20T14:27:58.136Z,100725.72
2022-11-20T14:30:27.136Z,100727.59
2022-11-20T14:33:04.183Z,100735.81
2022-11-20T14:35:37.842Z,100750.84
2022-11-20T14:38:05.167Z,100754.53
2022-11-20T14:40:48.872Z,100743.00
2022-11-20T14:43:56.048Z,100726.75
2022-11-20T14:46:23.035Z,100725.47
2022-11-20T14:49:23.586Z,100728.75
2022-11-20T14:52:00.549Z,100719.09
2022-11-20T14:54:31.606Z,100712.72
2022-11-20T14:57:04.766Z,100706.56
2022-11-20T14:59:34.445Z,100705.72
2022-11-20T15:02:12.877Z,100705.72
2022-11-20T15:04:57.560Z,100696.66
2022-11-20T15:07:30.739Z,100694.00
2022-11-20T15:10:25.976Z,100695.44
2022-11-20T15:13:00.906Z,100687.19
2022-11-20T15:15:55.920Z,100687.78
2022-11-20T15:18:33.148Z,100685.94
2022-11-20T15:21:21.839Z,100674.84
2022-11-20T15:23:54.609Z,100678.13
2022-11-20T15:26:26.965Z,100676.72
2022-11-20T15:28:53.823Z,100672.16
2022-11-20T15:31:24.688Z,100667.66
2022-11-20T15:33:51.470Z,100657.75
2022-11-20T15:36:18.057Z,100662.06
2022-11-20T15:38:44.480Z,100651.38
2022-11-20T15:41:11.523Z,100640.66
2022-11-20T15:43:38.428Z,100643.16
2022-11-20T15:46:10.172Z,100640.25
2022-11-20T15:48:44.754Z,100633.25
2022-11-20T15:51:30.432Z,100625.47
2022-11-20T15:53:57.715Z,100618.25
2022-11-20T15:56:24.766Z,100615.13
2022-11-20T15:58:51.146Z,100613.06
2022-11-20T16:01:22.961Z,100595.97
2022-11-20T16:03:49.646Z,100591.66
2022-11-20T16:06:18.194Z,100586.75
2022-11-20T16:08:44.777Z,100581.38
2022-11-20T16:11:16.730Z,100577.69
2022-11-20T16:14:02.431Z,100563.25
2022-11-20T16:16:34.240Z,100568.63
2022-11-20T16:19:01.247Z,100558.34
2022-11-20T16:21:32.226Z,100551.75
2022-11-20T16:24:00.713Z,100554.00
2022-11-20T16:26:36.133Z,100559.13
2022-11-20T16:29:04.750Z,100550.06
2022-11-20T16:31:44.139Z,100536.44
2022-11-20T16:34:12.664Z,100531.94
2022-11-20T16:36:45.858Z,100538.91
2022-11-20T16:39:13.486Z,100532.53
2022-11-20T16:41:40.029Z,100528.56
2022-11-20T16:44:11.722Z,100524.06
2022-11-20T16:46:40.922Z,100527.31
2022-11-20T16:49:12.608Z,100526.28
2022-11-20T16:51:49.267Z,100513.50
2022-11-20T16:54:20.496Z,100507.91
2022-11-20T16:56:48.291Z,100501.75
2022-11-20T16:59:14.655Z,100501.75
2022-11-20T17:01:43.095Z,100495.38
2022-11-20T17:04:10.041Z,100497.59
2022-11-20T17:06:46.859Z,100481.16
2022-11-20T17:09:13.818Z,100480.34
2022-11-20T17:11:40.326Z,100482.00
2022-11-20T17:14:11.422Z,100483.63
2022-11-20T17:16:38.381Z,100479.47
2022-11-20T17:19:06.240Z,100477.59
2022-11-20T17:21:38.073Z,100482.75
2022-11-20T17:24:09.149Z,100486.81
2022-11-20T17:26:38.399Z,100484.38
2022-11-20T17:29:05.979Z,100472.63
2022-11-20T17:31:34.335Z,100479.38
2022-11-20T17:34:01.692Z,100472.19
2022-11-20T17:36:29.502Z,100474.03
2022-11-20T17:38:56.199Z,100475.66
2022-11-20T17:41:25.339Z,100478.13
2022-11-20T17:43:57.253Z,100471.72
2022-11-20T17:46:25.722Z,100476.84
2022-11-20T17:48:52.375Z,100470.69
2022-11-20T17:51:35.062Z,100483.03
2022-11-20T17:54:04.344Z,100487.56
2022-11-20T17:56:52.643Z,100481.41
2022-11-20T17:59:19.668Z,100486.31
2022-11-20T18:01:46.155Z,100487.34
2022-11-20T18:04:22.178Z,100489.56
2022-11-20T18:06:57.030Z,100495.97
2022-11-20T18:09:28.687Z,100494.09
2022-11-20T18:11:55.123Z,100502.97
2022-11-20T18:14:36.079Z,100494.09
2022-11-20T18:17:04.572Z,100491.66
2022-11-20T18:20:14.130Z,100484.22
2022-11-20T18:22:48.312Z,100486.31
2022-11-20T18:25:44.503Z,100487.94
2022-11-20T18:28:10.913Z,100484.44
2022-11-20T18:30:37.255Z,100495.97
2022-11-20T18:33:05.003Z,100495.72
2022-11-20T18:35:45.406Z,100494.47
2022-11-20T18:38:13.947Z,100504.94
2022-11-20T18:40:40.291Z,100498.78
2022-11-20T18:43:24.976Z,100496.13
2022-11-20T18:45:52.494Z,100500.44
2022-11-20T18:48:18.860Z,100501.69
2022-11-20T18:50:46.296Z,100505.41
2022-11-20T18:53:12.684Z,100508.06
2022-11-20T18:55:56.048Z,100516.69
2022-11-20T18:58:23.466Z,100514.84
2022-11-20T19:00:49.821Z,100519.16
2022-11-20T19:03:27.172Z,100520.81
2022-11-20T19:05:53.518Z,100522.44
2022-11-20T19:08:27.974Z,100517.09
2022-11-20T19:11:14.004Z,100526.16
2022-11-20T19:13:45.192Z,100517.09
2022-11-20T19:16:22.479Z,100518.34
2022-11-20T19:18:49.367Z,100513.81
2022-11-20T19:21:23.306Z,100503.91
2022-11-20T19:24:00.184Z,100503.09
2022-11-20T19:26:36.182Z,100512.19
2022-11-20T19:29:06.790Z,100513.81
2022-11-20T19:31:33.474Z,100502.88
2022-11-20T19:34:09.807Z,100507.19
2022-11-20T19:36:44.778Z,100498.34
2022-11-20T19:39:12.111Z,100484.97
2022-11-20T19:41:45.542Z,100491.34
2022-11-20T19:44:15.807Z,100492.41
2022-11-20T19:46:42.223Z,100490.53
2022-11-20T19:49:11.340Z,100495.28
2022-11-20T19:51:43.464Z,100495.28
2022-11-20T19:54:09.939Z,100499.59
2022-11-20T19:56:36.439Z,100500.44
2022-11-20T19:59:04.966Z,100497.75
2022-11-20T20:01:32.249Z,100494.47
2022-11-20T20:04:05.046Z,100512.19
2022-11-20T20:06:33.784Z,100512.19
2022-11-20T20:09:09.579Z,100510.53
2022-11-20T20:11:49.053Z,100517.53
2022-11-20T20:14:32.763Z,100520.41
2022-11-20T20:17:13.432Z,100518.56
2022-11-20T20:19:43.990Z,100528.25
2022-11-20T20:22:13.564Z,100527.78
2022-11-20T20:24:47.213Z,100536.03
2022-11-20T20:27:25.893Z,100540.13
2022-11-20T20:30:05.942Z,100541.78
2022-11-20T20:32:33.437Z,100541.78
2022-11-20T20:35:00.121Z,100543.41
2022-11-20T20:37:34.802Z,100542.56
2022-11-20T20:44:35.671Z,100546.28
2022-11-20T20:47:36.126Z,100546.09
2022-11-20T20:50:30.497Z,100548.97
2022-11-20T20:53:30.338Z,100552.47
2022-11-20T20:57:03.403Z,100545.03
2022-11-20T20:59:29.852Z,100552.03
2022-11-20T21:01:57.335Z,100562.75
2022-11-20T21:04:24.140Z,100543.16
2022-11-20T21:07:12.513Z,100534.34
2022-11-20T21:09:57.351Z,100543.41
2022-11-20T21:12:50.695Z,100547.94
2022-11-20T21:15:17.248Z,100549.81
2022-11-20T21:18:11.630Z,100550.41
2022-11-20T21:21:04.890Z,100554.13
2022-11-20T21:24:14.063Z,100562.75
2022-11-20T21:26:44.739Z,100558.19
2022-11-20T21:29:34.051Z,100567.06
2022-11-20T21:32:16.916Z,100566.22
2022-11-20T21:34:44.395Z,100564.59
2022-11-20T21:37:10.907Z,100570.78
2022-11-20T21:39:50.676Z,100572.41
2022-11-20T21:42:18.308Z,100574.66
2022-11-20T21:45:08.952Z,100568.25
2022-11-20T21:47:35.366Z,100566.81
2022-11-20T21:50:03.654Z,100574.66
2022-11-20T21:52:30.159Z,100577.88
2022-11-20T21:55:01.763Z,100578.72
2022-11-20T21:57:29.284Z,100586.50
2022-11-20T22:00:13.580Z,100591.88
2022-11-20T22:02:41.009Z,100583.84
2022-11-20T22:05:20.857Z,100582.78
2022-11-20T22:07:47.317Z,100589.19
2022-11-20T22:10:19.848Z,100589.78
2022-11-20T22:13:17.623Z,100593.50
2022-11-20T22:16:00.601Z,100596.78
2022-11-20T22:18:33.656Z,100604.81
2022-11-20T22:21:09.503Z,100614.94
2022-11-20T22:23:49.850Z,100616.56
2022-11-20T22:26:18.800Z,100618.44
2022-11-20T22:29:21.480Z,100620.28
2022-11-20T22:31:48.110Z,100631.81
2022-11-20T22:34:20.943Z,100636.34
2022-11-20T22:36:47.652Z,100634.72
2022-11-20T22:39:24.390Z,100635.53
2022-11-20T22:42:08.108Z,100629.81
2022-11-20T22:45:13.995Z,100639.47
2022-11-20T22:48:13.678Z,100631.22
2022-11-20T22:50:40.055Z,100629.59
2022-11-20T22:53:20.813Z,100629.00
2022-11-20T22:56:14.662Z,100636.00
2022-11-20T22:58:43.289Z,100633.53
2022-11-20T23:01:30.534Z,100632.13
2022-11-20T23:04:10.861Z,100642.63
2022-11-20T23:06:37.494Z,100649.00
2022-11-20T23:09:30.570Z,100650.06
2022-11-20T23:11:59.047Z,100662.41
2022-11-20T23:14:36.759Z,100659.13
2022-11-20T23:17:06.161Z,100661.56
2022-11-20T23:19:34.554Z,100671.47
2022-11-20T23:22:05.062Z,100658.88
2022-11-20T23:24:31.444Z,100663.19
2022-11-20T23:26:59.951Z,100674.75
2022-11-20T23:29:26.503Z,100683.59
2022-11-20T23:31:55.335Z,100692.66
2022-11-20T23:34:59.937Z,100690.81
2022-11-20T23:37:40.548Z,100679.25
2022-11-20T23:40:18.268Z,100669.41
2022-11-20T23:43:16.763Z,100683.81
2022-11-20T23:45:49.374Z,100677.63
2022-11-20T23:48:16.503Z,100656.88
2022-11-20T23:50:44.436Z,100668.63
2022-11-20T23:53:12.435Z,100661.66
2022-11-20T23:55:38.864Z,100661.84
2022-11-20T23:58:05.432Z,100676.50
